createdAt,value
2022-11-13T08:25:04.188Z,5.87
2022-11-13T08:29:15.624Z,6.05
2022-11-13T08:30:15.575Z,5.98
2022-11-13T08:31:15.522Z,6.12
2022-11-13T08:32:15.474Z,6.16
2022-11-13T08:34:18.814Z,6.25
2022-11-13T08:35:19.622Z,6.26
2022-11-13T08:36:18.713Z,6.25
2022-11-13T08:37:18.694Z,6.34
2022-11-13T08:38:18.648Z,6.35
2022-11-13T08:39:18.607Z,6.43
2022-11-13T08:40:18.621Z,6.47
2022-11-13T08:41:18.458Z,6.59
2022-11-13T08:42:18.409Z,6.54
2022-11-13T08:43:18.367Z,6.59
2022-11-13T08:44:18.315Z,6.70
2022-11-13T08:45:18.258Z,6.62
2022-11-13T08:46:18.210Z,6.70
2022-11-13T08:47:18.161Z,6.87
2022-11-13T08:48:18.109Z,6.92
2022-11-13T08:49:18.062Z,6.96
2022-11-13T08:50:18.214Z,6.97
2022-11-13T08:51:17.963Z,7.03
2022-11-13T08:52:17.912Z,6.97
2022-11-13T08:53:17.863Z,7.18
2022-11-13T08:54:17.817Z,7.19
2022-11-13T08:55:17.766Z,7.28
2022-11-13T08:56:17.833Z,7.28
2022-11-13T08:57:17.665Z,7.32
2022-11-13T08:58:17.615Z,7.46
2022-11-13T08:59:17.574Z,7.43
2022-11-13T09:00:17.518Z,7.46
2022-11-13T09:01:17.472Z,7.58
2022-11-13T09:02:17.424Z,7.62
2022-11-13T09:03:17.376Z,7.74
2022-11-13T09:04:17.324Z,7.69
2022-11-13T09:05:17.280Z,7.74
2022-11-13T09:06:17.225Z,7.85
2022-11-13T09:07:17.248Z,7.98
2022-11-13T09:08:17.130Z,7.96
2022-11-13T09:09:17.084Z,8.02
2022-11-13T09:10:17.038Z,8.06
2022-11-13T09:11:16.988Z,8.14
2022-11-13T09:12:17.058Z,8.24
2022-11-13T09:13:16.888Z,8.18
2022-11-13T09:14:16.890Z,8.28
2022-11-13T09:15:20.310Z,8.28
2022-11-13T09:16:16.753Z,8.45
2022-11-13T09:17:16.713Z,8.45
2022-11-13T09:18:16.648Z,8.52
2022-11-13T09:20:13.780Z,8.64
2022-11-13T09:21:10.346Z,8.72
2022-11-13T09:22:09.914Z,8.66
2022-11-13T09:23:09.863Z,8.82
2022-11-13T09:24:09.795Z,8.78
2022-11-13T09:26:09.702Z,8.95
2022-11-13T09:27:09.651Z,8.99
2022-11-13T09:31:26.579Z,9.30
2022-11-13T09:34:17.985Z,9.39
2022-11-13T09:35:17.937Z,9.31
2022-11-13T09:36:17.888Z,9.48
2022-11-13T09:37:17.842Z,9.47
2022-11-13T09:38:17.834Z,9.51
2022-11-13T09:39:17.748Z,9.58
2022-11-13T09:40:17.698Z,9.63
2022-11-13T09:41:17.652Z,9.64
2022-11-13T09:42:17.604Z,9.74
2022-11-13T09:43:17.556Z,9.74
2022-11-13T09:45:17.462Z,9.87
2022-11-13T09:46:17.421Z,9.90
2022-11-13T09:47:17.486Z,9.97
2022-11-13T09:48:17.321Z,10.03
2022-11-13T09:50:20.674Z,10.20
2022-11-13T09:51:20.627Z,10.24
2022-11-13T09:52:20.581Z,10.30
2022-11-13T09:53:20.535Z,10.48
2022-11-13T09:55:03.863Z,10.48
2022-11-13T09:56:03.827Z,10.61
2022-11-13T09:57:03.906Z,10.61
2022-11-13T09:58:03.725Z,10.72
2022-11-13T09:59:03.675Z,10.75
2022-11-13T10:00:03.636Z,10.80
2022-11-13T10:01:03.616Z,10.84
2022-11-13T10:02:03.537Z,10.95
2022-11-13T10:03:03.607Z,10.94
2022-11-13T10:04:04.504Z,10.92
2022-11-13T10:05:03.395Z,11.12
2022-11-13T10:06:03.354Z,11.05
2022-11-13T10:07:03.391Z,11.15
2022-11-13T10:08:03.254Z,11.19
2022-11-13T10:09:03.205Z,11.20
2022-11-13T10:10:03.164Z,11.26
2022-11-13T10:11:03.112Z,11.34
2022-11-13T10:12:03.073Z,11.37
2022-11-13T10:13:03.024Z,11.44
2022-11-13T10:14:02.983Z,11.45
2022-11-13T10:15:02.927Z,11.45
2022-11-13T10:16:02.883Z,11.51
2022-11-13T10:17:02.914Z,11.52
2022-11-13T10:18:02.791Z,11.56
2022-11-13T10:19:02.853Z,11.59
2022-11-13T10:20:02.698Z,11.68
2022-11-13T10:21:08.313Z,11.67
2022-11-13T10:22:31.109Z,11.76
2022-11-13T10:23:02.553Z,11.83
2022-11-13T10:24:02.510Z,11.91
2022-11-13T10:25:02.467Z,11.93
2022-11-13T10:26:02.441Z,11.99
2022-11-13T10:27:02.444Z,11.99
2022-11-13T10:28:15.809Z,12.11
2022-11-13T10:29:02.415Z,12.02
2022-11-13T10:30:02.243Z,12.15
2022-11-13T10:31:02.284Z,12.12
2022-11-13T10:32:02.142Z,12.14
2022-11-13T10:33:02.089Z,12.11
2022-11-13T10:34:02.042Z,12.14
2022-11-13T10:35:02.109Z,12.21
2022-11-13T10:36:01.947Z,12.28
2022-11-13T10:37:01.964Z,12.25
2022-11-13T10:38:07.531Z,12.18
2022-11-13T10:39:01.828Z,12.32
2022-11-13T10:40:01.762Z,12.32
2022-11-13T10:41:01.715Z,12.29
2022-11-13T10:42:01.670Z,12.29
2022-11-13T10:43:01.623Z,12.47
2022-11-13T10:44:01.577Z,12.45
2022-11-13T10:45:01.537Z,12.37
2022-11-13T10:46:01.485Z,12.48
2022-11-13T10:47:01.480Z,12.54
2022-11-13T10:48:04.779Z,12.48
2022-11-13T10:49:01.345Z,12.57
2022-11-13T10:50:01.303Z,12.61
2022-11-13T10:51:01.363Z,12.61
2022-11-13T10:52:01.209Z,12.62
2022-11-13T10:53:01.160Z,12.57
2022-11-13T10:54:01.115Z,12.57
2022-11-13T10:55:01.070Z,12.66
2022-11-13T10:56:01.023Z,12.76
2022-11-13T10:57:01.026Z,12.81
2022-11-13T10:58:00.934Z,12.80
2022-11-13T10:59:00.893Z,12.83
2022-11-13T11:00:00.840Z,12.95
2022-11-13T11:01:00.829Z,12.86
2022-11-13T11:04:11.293Z,13.02
2022-11-13T11:05:11.245Z,13.12
2022-11-13T11:06:11.305Z,13.17
2022-11-13T11:07:20.278Z,13.16
2022-11-13T11:08:11.360Z,13.26
2022-11-13T11:09:11.071Z,13.28
2022-11-13T11:10:11.014Z,13.28
2022-11-13T11:11:10.968Z,13.33
2022-11-13T11:12:10.925Z,13.30
2022-11-13T11:13:10.877Z,13.40
2022-11-13T18:07:45.337Z,10.62
2022-11-13T18:08:45.174Z,10.64
2022-11-13T18:09:45.128Z,10.64
2022-11-13T18:10:45.082Z,10.62
2022-11-13T18:11:45.037Z,10.67
2022-11-13T18:12:44.985Z,10.58
2022-11-13T18:13:44.937Z,10.62
2022-11-13T18:14:44.891Z,10.53
2022-11-13T18:15:44.846Z,10.53
2022-11-13T18:16:44.799Z,10.57
2022-11-13T18:17:44.752Z,10.55
2022-11-13T18:18:44.704Z,10.53
2022-11-13T18:19:44.655Z,10.53
2022-11-13T18:20:44.608Z,10.53
2022-11-13T18:21:44.560Z,10.45
2022-11-13T18:22:44.510Z,10.55
2022-11-13T18:23:44.579Z,10.62
2022-11-13T18:24:44.490Z,10.57
2022-11-13T18:25:44.370Z,10.58
2022-11-13T18:26:44.322Z,10.57
2022-11-13T18:27:44.278Z,10.61
2022-11-13T18:28:44.229Z,10.64
2022-11-13T18:29:44.185Z,10.62
2022-11-13T18:30:44.132Z,10.64
2022-11-13T18:31:44.086Z,10.53
2022-11-13T18:32:44.047Z,10.55
2022-11-13T18:33:43.989Z,10.49
2022-11-13T18:34:44.271Z,10.51
2022-11-13T18:35:43.897Z,10.49
2022-11-13T18:36:43.870Z,10.58
2022-11-13T18:37:43.920Z,10.65
2022-11-13T18:38:43.782Z,10.62
2022-11-13T18:39:43.848Z,10.58
2022-11-13T18:40:43.684Z,10.58
2022-11-13T18:41:44.096Z,10.58
2022-11-13T18:42:43.582Z,10.64
2022-11-13T18:43:43.548Z,10.57
2022-11-13T18:44:43.510Z,10.59
2022-11-13T18:45:43.472Z,10.61
2022-11-13T18:46:43.453Z,10.57
2022-11-13T18:47:43.370Z,10.61
2022-11-13T18:48:43.312Z,10.61
2022-11-13T18:49:43.251Z,10.61
2022-11-13T18:50:43.211Z,10.57
2022-11-13T18:51:43.165Z,10.61
2022-11-13T18:52:43.119Z,10.58
2022-11-13T18:53:43.092Z,10.62
2022-11-13T18:54:43.362Z,10.61
2022-11-13T18:55:43.093Z,10.58
2022-11-13T18:56:42.956Z,10.64
2022-11-13T18:57:42.889Z,10.64
2022-11-13T18:58:42.841Z,10.61
2022-11-13T18:59:42.813Z,10.62
2022-11-13T19:00:42.776Z,10.58
2022-11-13T19:01:42.809Z,10.61
2022-11-13T19:02:42.692Z,10.59
2022-11-13T19:03:55.411Z,10.61
2022-11-13T19:04:42.564Z,10.59
2022-11-13T19:05:42.541Z,10.58
2022-11-13T19:06:42.512Z,10.61
2022-11-13T19:07:42.445Z,10.61
2022-11-13T19:08:42.403Z,10.59
2022-11-13T19:09:42.353Z,10.59
2022-11-13T19:10:42.313Z,10.61
2022-11-13T19:11:42.385Z,10.64
2022-11-13T19:12:42.223Z,10.61
2022-11-13T19:13:42.176Z,10.58
2022-11-13T19:14:42.330Z,10.57
2022-11-13T19:15:42.064Z,10.55
2022-11-13T19:16:42.035Z,10.57
2022-11-13T19:17:41.985Z,10.55
2022-11-13T19:18:41.944Z,10.55
2022-11-13T19:19:41.899Z,10.53
2022-11-13T19:20:41.853Z,10.57
2022-11-13T19:21:41.806Z,10.61
2022-11-13T19:22:41.764Z,10.64
2022-11-13T19:23:41.715Z,10.62
2022-11-13T19:24:41.672Z,10.58
2022-11-13T19:25:41.619Z,10.64
2022-11-13T19:26:41.576Z,10.49
2022-11-13T19:27:41.651Z,10.49
2022-11-13T19:28:41.484Z,10.49
2022-11-13T19:29:41.444Z,10.53
2022-11-13T19:30:41.401Z,10.53
2022-11-13T19:31:41.659Z,10.48
2022-11-13T19:32:41.300Z,10.48
2022-11-13T19:33:41.256Z,10.36
